Time;durP1;ratioP1;P1;durP2;ratioP2;P2;SDS_P1;SDS_P2;PMS_P1;PMS_P2;Temp;Humidity;BMP_temperature;BMP_pressure;BME280_temperature;BME280_humidity;BME280_pressure;Samples;Min_cycle;Max_cycle;Signal;HPM_P1;HPM_P2
2022/04/09 00:00:41;;;;;;;;;5.00;5.00;;;;;17.49;46.23;100351.03;146598;666;47011;-77
2022/04/09 00:03:34;;;;;;;;;3.75;3.00;;;;;17.42;46.24;100346.53;146598;703;47008;-72
2022/04/09 00:06:26;;;;;;;;;5.50;4.50;;;;;17.39;47.06;100349.13;146601;572;47010;-73
2022/04/09 00:09:18;;;;;;;;;5.00;4.00;;;;;17.33;46.75;100347.25;146602;566;46020;-73
2022/04/09 00:12:11;;;;;;;;;3.25;3.00;;;;;17.24;47.32;100345.34;146595;563;47010;-73
2022/04/09 00:15:03;;;;;;;;;4.25;3.75;;;;;17.16;47.61;100344.31;146602;690;46021;-78
2022/04/09 00:17:55;;;;;;;;;4.50;3.75;;;;;17.03;48.57;100352.81;146596;608;47010;-74
2022/04/09 00:20:49;;;;;;;;;5.50;5.50;;;;;16.89;48.25;100357.78;146599;664;46008;-82
2022/04/09 00:23:41;;;;;;;;;7.25;7.00;;;;;16.70;48.95;100348.66;146599;659;46010;-83
2022/04/09 00:26:33;;;;;;;;;4.00;4.00;;;;;16.48;48.96;100343.78;146601;569;47008;-82
2022/04/09 00:29:25;;;;;;;;;4.00;4.00;;;;;16.28;50.77;100348.63;146599;656;46016;-82
2022/04/09 00:32:17;;;;;;;;;5.75;5.00;;;;;16.11;50.12;100354.34;146602;654;46020;-83
2022/04/09 00:35:10;;;;;;;;;2.67;2.00;;;;;15.98;50.85;100351.41;146597;654;47012;-82
2022/04/09 00:38:03;;;;;;;;;4.50;4.25;;;;;15.82;51.06;100348.44;146601;635;46020;-80
2022/04/09 00:40:55;;;;;;;;;5.75;4.25;;;;;15.73;51.50;100345.59;146599;689;46010;-78
2022/04/09 00:43:47;;;;;;;;;4.00;3.00;;;;;15.62;51.47;100345.31;146598;576;47008;-78
2022/04/09 00:46:39;;;;;;;;;2.50;2.50;;;;;15.50;52.57;100342.37;146598;579;46016;-79
2022/04/09 00:49:31;;;;;;;;;3.25;2.75;;;;;15.39;53.16;100338.59;146602;628;46008;-79
2022/04/09 00:52:26;;;;;;;;;3.00;3.00;;;;;15.31;52.66;100342.78;146601;681;46010;-79
2022/04/09 00:56:12;;;;;;;;;3.25;3.25;;;;;15.14;53.26;100319.72;146604;615;45051;-79
2022/04/09 00:58:33;;;;;;;;;3.75;3.75;;;;;15.06;53.18;100326.44;146597;585;46915;-79
2022/04/09 01:01:34;;;;;;;;;2.75;2.00;;;;;15.01;53.73;100322.81;146603;669;46020;-81
2022/04/09 01:04:27;;;;;;;;;5.25;2.50;;;;;14.93;53.40;100324.38;146599;645;47012;-86
2022/04/09 01:07:20;;;;;;;;;2.25;2.25;;;;;14.89;53.74;100327.72;146602;692;46009;-75
2022/04/09 01:10:13;;;;;;;;;2.00;2.00;;;;;14.88;53.74;100324.22;146598;563;46916;-80
2022/04/09 01:13:05;;;;;;;;;4.25;1.50;;;;;14.83;54.91;100323.22;146603;690;46020;-81
2022/04/09 01:15:57;;;;;;;;;1.75;1.75;;;;;14.76;54.28;100323.88;146598;575;46017;-81
2022/04/09 01:18:49;;;;;;;;;4.00;2.00;;;;;14.71;53.85;100323.78;146601;574;47020;-82
2022/04/09 01:21:43;;;;;;;;;2.00;2.00;;;;;14.69;53.90;100324.56;146599;577;46016;-84
2022/04/09 01:24:35;;;;;;;;;2.25;2.25;;;;;14.63;55.44;100322.66;146602;658;47008;-80
2022/04/09 01:27:28;;;;;;;;;3.25;2.00;;;;;14.62;54.60;100323.50;146599;599;46010;-81
2022/04/09 01:30:21;;;;;;;;;3.75;3.25;;;;;14.59;54.73;100314.72;146603;566;46008;-74
2022/04/09 01:33:19;;;;;;;;;2.00;1.75;;;;;14.57;53.81;100304.22;146600;669;46010;-78
2022/04/09 01:36:11;;;;;;;;;4.25;2.50;;;;;14.59;53.86;100310.38;146600;671;46008;-73
2022/04/09 01:39:03;;;;;;;;;4.75;3.00;;;;;14.63;54.04;100313.94;146599;612;46016;-74
2022/04/09 01:41:55;;;;;;;;;1.75;1.50;;;;;14.66;54.04;100320.12;146602;612;46027;-72
2022/04/09 01:44:47;;;;;;;;;2.75;2.00;;;;;14.68;54.16;100323.69;146599;684;46017;-73
2022/04/09 01:47:43;;;;;;;;;3.25;2.75;;;;;14.67;54.00;100326.22;146598;647;47008;-74
2022/04/09 01:50:35;;;;;;;;;5.00;3.50;;;;;14.63;54.42;100337.44;146596;573;47010;-73
2022/04/09 01:53:26;;;;;;;;;2.00;1.00;;;;;14.53;54.81;100337.16;146600;680;47008;-74
2022/04/09 01:56:19;;;;;;;;;3.00;3.00;;;;;14.45;55.64;100329.91;146597;569;47010;-74
2022/04/09 01:59:11;;;;;;;;;1.25;1.25;;;;;14.35;55.84;100325.28;146600;638;46020;-74
2022/04/09 02:02:03;;;;;;;;;3.00;2.00;;;;;14.23;55.04;100334.50;146596;690;47010;-74
2022/04/09 02:04:56;;;;;;;;;1.50;1.50;;;;;14.16;56.24;100318.63;146599;691;47008;-74
2022/04/09 02:07:49;;;;;;;;;2.75;2.75;;;;;14.06;57.35;100320.09;146598;614;46017;-74
2022/04/09 02:10:41;;;;;;;;;3.00;2.00;;;;;13.94;57.78;100324.91;146602;662;46020;-74
2022/04/09 02:13:33;;;;;;;;;2.00;2.00;;;;;13.89;57.28;100318.66;146598;588;46028;-74
2022/04/09 02:16:27;;;;;;;;;7.50;3.50;;;;;13.86;57.02;100319.44;146600;675;47008;-75
2022/04/09 02:19:19;;;;;;;;;5.00;5.00;;;;;13.84;56.01;100316.81;146598;594;46010;-77
2022/04/09 02:22:11;;;;;;;;;2.00;2.00;;;;;13.88;56.34;100323.00;146602;581;46025;-80
2022/04/09 02:25:03;;;;;;;;;1.75;1.75;;;;;13.86;55.86;100320.34;146599;593;46016;-81
2022/04/09 02:27:55;;;;;;;;;2.00;2.00;;;;;13.88;55.75;100328.19;146599;608;46020;-77
2022/04/09 02:30:48;;;;;;;;;1.75;1.75;;;;;13.89;55.36;100327.34;146599;570;46012;-78
2022/04/09 02:33:40;;;;;;;;;3.25;2.25;;;;;13.92;55.68;100330.06;146603;602;46008;-83
2022/04/09 02:36:32;;;;;;;;;3.50;2.00;;;;;13.93;56.87;100330.97;146599;635;46016;-83
2022/04/09 02:39:24;;;;;;;;;4.00;3.00;;;;;13.80;58.25;100327.06;146598;563;47008;-88
2022/04/09 02:42:18;;;;;;;;;2.00;2.00;;;;;13.65;57.25;100322.28;146596;629;47010;-87
2022/04/09 02:45:13;;;;;;;;;1.25;1.00;;;;;13.53;57.32;100330.56;146597;576;47008;-85
2022/04/09 02:48:05;;;;;;;;;2.75;2.75;;;;;13.45;58.61;100323.31;146599;575;46016;-82
2022/04/09 02:50:57;;;;;;;;;2.00;2.00;;;;;13.36;58.78;100321.28;146601;667;46008;-84
2022/04/09 02:53:50;;;;;;;;;2.50;2.50;;;;;13.30;58.51;100314.19;146597;564;46010;-84
2022/04/09 02:56:43;;;;;;;;;3.00;2.00;;;;;13.26;59.41;100314.00;146603;702;46008;-80
2022/04/09 02:59:35;;;;;;;;;3.00;1.25;;;;;13.25;58.13;100310.53;146597;571;46010;-79
2022/04/09 03:02:27;;;;;;;;;4.00;4.00;;;;;13.31;57.43;100315.06;146604;684;45020;-80
2022/04/09 03:05:19;;;;;;;;;3.25;2.25;;;;;13.37;58.19;100310.06;146597;587;47010;-80
2022/04/09 03:08:12;;;;;;;;;4.00;3.00;;;;;13.48;57.17;100319.09;146599;620;47008;-79
2022/04/09 03:11:04;;;;;;;;;5.25;2.75;;;;;13.62;56.59;100316.97;146600;580;46016;-79
2022/04/09 03:13:56;;;;;;;;;12.25;12.25;;;;;13.68;57.00;100311.94;146599;599;46008;-82
2022/04/09 03:16:48;;;;;;;;;12.50;12.50;;;;;13.74;56.13;100316.47;146597;593;46012;-80
2022/04/09 03:19:40;;;;;;;;;4.25;4.25;;;;;13.72;56.12;100313.81;146631;593;45020;-77
2022/04/09 03:22:33;;;;;;;;;16.00;14.75;;;;;13.71;56.48;100306.84;146626;641;45012;-77
2022/04/09 03:25:25;;;;;;;;;5.50;3.50;;;;;13.70;56.57;100311.97;146628;569;45020;-82
2022/04/09 03:28:17;;;;;;;;;2.25;1.00;;;;;13.66;57.41;100311.00;146624;620;45016;-81
2022/04/09 03:31:09;;;;;;;;;1.00;1.00;;;;;13.58;57.49;100310.78;146629;606;45008;-80
2022/04/09 03:34:01;;;;;;;;;4.50;4.25;;;;;13.50;57.31;100313.97;146631;657;44916;-74
2022/04/09 03:36:53;;;;;;;;;2.75;2.00;;;;;13.45;57.21;100305.09;146630;651;45025;-76
2022/04/09 03:39:46;;;;;;;;;5.25;3.00;;;;;13.41;57.87;100306.72;146624;584;45024;-87
2022/04/09 03:42:38;;;;;;;;;3.75;3.50;;;;;12.39;57.46;100146.25;146627;616;46008;-85
2022/04/09 03:45:31;;;;;;;;;2.25;2.25;;;;;13.28;58.44;100307.16;146624;681;46012;-85
2022/04/09 03:48:23;;;;;;;;;6.50;6.50;;;;;13.25;58.05;100305.31;146631;593;45008;-81
2022/04/09 03:51:15;;;;;;;;;3.75;3.75;;;;;13.24;57.36;100308.75;146625;606;46010;-79
2022/04/09 03:54:08;;;;;;;;;1.00;1.00;;;;;13.23;58.22;100306.94;146627;679;45020;-79
2022/04/09 03:57:00;;;;;;;;;2.00;2.00;;;;;13.24;57.80;100306.13;146625;569;45916;-78
2022/04/09 03:59:55;;;;;;;;;8.00;7.00;;;;;13.25;57.14;100305.31;146627;664;46008;-76
2022/04/09 04:02:47;;;;;;;;;7.50;7.00;;;;;13.29;56.98;100303.72;146627;584;45916;-77
2022/04/09 04:05:38;;;;;;;;;8.75;8.75;;;;;13.34;56.47;100300.44;146630;566;45008;-77
2022/04/09 04:08:31;;;;;;;;;8.00;6.75;;;;;13.45;55.57;100286.88;146629;654;45010;-78
2022/04/09 04:11:23;;;;;;;;;7.50;7.50;;;;;13.62;54.90;100288.31;146631;606;44918;-83
2022/04/09 04:14:15;;;;;;;;;3.75;3.25;;;;;13.84;54.34;100277.72;146629;601;45012;-83
2022/04/09 04:17:08;;;;;;;;;2.00;2.00;;;;;14.07;53.35;100283.59;146628;596;45918;-82
2022/04/09 04:20:14;;;;;;;;;8.50;6.75;;;;;14.33;52.65;100288.75;146600;583;47917;-84
2022/04/09 04:23:11;;;;;;;;;9.25;8.75;;;;;14.56;52.50;100286.81;146602;569;46020;-81
2022/04/09 04:26:03;;;;;;;;;4.00;3.75;;;;;14.74;51.76;100287.31;146598;643;46917;-81
2022/04/09 04:28:55;;;;;;;;;3.00;1.00;;;;;14.91;51.36;100282.53;146605;619;45021;-80
2022/04/09 04:31:48;;;;;;;;;3.75;3.25;;;;;15.06;51.98;100289.03;146598;657;46032;-81
2022/04/09 04:34:39;;;;;;;;;2.00;2.00;;;;;15.00;51.27;100269.72;146604;715;45021;-81
2022/04/09 04:37:45;;;;;;;;;5.00;4.00;;;;;15.21;51.17;100297.25;146602;572;45917;-81
2022/04/09 04:40:41;;;;;;;;;6.00;6.00;;;;;15.27;51.66;100304.38;146604;595;45020;-83
2022/04/09 04:43:40;;;;;;;;;6.50;5.75;;;;;15.33;51.41;100304.53;146601;608;45918;-83
2022/04/09 04:46:41;;;;;;;;;6.00;5.00;;;;;15.52;53.08;100311.97;146604;565;46008;-84
2022/04/09 04:49:34;;;;;;;;;7.25;5.25;;;;;16.16;51.56;100303.00;146599;566;46012;-80
2022/04/09 04:52:27;;;;;;;;;8.75;7.00;;;;;16.92;50.73;100302.84;146604;619;46008;-79
2022/04/09 04:55:19;;;;;;;;;8.75;8.00;;;;;17.51;49.13;100307.38;146600;564;46010;-78
2022/04/09 04:58:12;;;;;;;;;9.00;9.00;;;;;17.82;47.49;100311.41;146604;564;46020;-83
2022/04/09 05:01:06;;;;;;;;;10.25;8.00;;;;;17.84;48.32;100314.91;146601;564;46010;-82
2022/04/09 05:04:00;;;;;;;;;6.50;6.25;;;;;17.71;47.54;100303.31;146602;592;46020;-83
2022/04/09 05:06:52;;;;;;;;;7.00;6.00;;;;;17.59;48.07;100308.37;146599;595;46917;-88
2022/04/09 05:09:45;;;;;;;;;7.25;6.00;;;;;17.52;48.43;100310.00;146602;580;46008;-79
2022/04/09 05:12:38;;;;;;;;;9.00;8.00;;;;;17.49;48.34;100312.59;146599;612;46017;-78
2022/04/09 05:15:31;;;;;;;;;6.50;5.50;;;;;17.46;47.89;100306.41;146605;602;46020;-81
2022/04/09 05:19:05;;;;;;;;;;;;;;;;;;;;;
2022/04/09 05:22:28;;;;;;;;;6.25;4.00;;;;;16.60;47.42;100150.38;146605;671;45022;-88
2022/04/09 05:25:33;;;;;;;;;5.50;5.50;;;;;17.61;48.34;100301.41;146602;741;46010;-79
2022/04/09 05:28:26;;;;;;;;;6.00;6.00;;;;;17.78;47.31;100314.81;146601;600;46008;-79
2022/04/09 05:31:20;;;;;;;;;7.00;5.00;;;;;17.94;46.22;100310.69;146600;591;47010;-82
2022/04/09 05:34:13;;;;;;;;;4.00;3.00;;;;;18.07;46.09;100316.97;146601;674;47008;-83
2022/04/09 05:37:05;;;;;;;;;6.25;5.00;;;;;18.24;45.47;100312.88;146598;563;47010;-82
2022/04/09 05:39:59;;;;;;;;;3.50;3.50;;;;;18.43;46.50;100306.97;146602;654;46021;-86
2022/04/09 05:42:52;;;;;;;;;5.25;4.25;;;;;18.66;45.57;100317.78;146601;575;46016;-82
2022/04/09 05:45:46;;;;;;;;;6.75;5.50;;;;;18.84;44.61;100318.87;146605;624;45020;-84
2022/04/09 05:48:38;;;;;;;;;5.00;5.00;;;;;18.97;44.68;100301.50;146599;575;46010;-77
2022/04/09 05:51:30;;;;;;;;;7.25;5.50;;;;;19.14;45.00;100302.56;146604;584;46020;-80
2022/04/09 05:54:23;;;;;;;;;7.00;5.25;;;;;19.36;45.76;100301.87;146600;619;45917;-80
2022/04/09 05:57:16;;;;;;;;;7.00;6.50;;;;;19.61;44.56;100302.09;146603;564;46020;-79
2022/04/09 06:00:10;;;;;;;;;5.50;4.00;;;;;19.81;44.06;100291.72;146601;654;46016;-79
2022/04/09 06:03:03;;;;;;;;;6.25;4.75;;;;;20.06;45.49;100303.28;146603;576;46020;-79
2022/04/09 06:05:55;;;;;;;;;4.33;4.33;;;;;20.29;44.45;100295.53;146601;642;46016;-79
2022/04/09 06:08:48;;;;;;;;;9.67;6.00;;;;;20.53;43.32;100292.16;146602;571;46026;-79
2022/04/09 06:11:41;;;;;;;;;5.00;5.00;;;;;20.69;42.96;100286.06;146600;673;47010;-78
2022/04/09 06:14:34;;;;;;;;;3.67;3.67;;;;;20.87;43.01;100289.59;146602;565;46020;-78
2022/04/09 06:17:29;;;;;;;;;7.25;5.50;;;;;21.03;42.52;100291.44;146596;591;47010;-77
2022/04/09 06:20:21;;;;;;;;;7.25;5.00;;;;;21.20;42.74;100281.75;146602;632;46020;-83
2022/04/09 06:23:13;;;;;;;;;6.25;6.25;;;;;21.37;41.82;100291.47;146602;570;45917;-83
2022/04/09 06:26:05;;;;;;;;;8.00;7.25;;;;;21.47;41.92;100293.25;146601;590;46009;-84
2022/04/09 06:28:58;;;;;;;;;12.50;10.50;;;;;21.53;41.90;100295.88;146597;577;47010;-76
2022/04/09 06:31:50;;;;;;;;;8.75;8.25;;;;;21.58;41.99;100282.69;146601;589;46012;-76
2022/04/09 06:34:42;;;;;;;;;4.50;4.50;;;;;21.70;42.03;100290.59;146596;679;46017;-76
2022/04/09 06:37:34;;;;;;;;;8.50;7.50;;;;;21.86;42.95;100296.72;146597;588;47008;-74
2022/04/09 06:40:28;;;;;;;;;7.25;7.25;;;;;21.97;41.55;100294.94;146598;610;46010;-73
2022/04/09 06:43:20;;;;;;;;;11.00;6.50;;;;;22.08;42.17;100290.50;146600;581;46020;-75
2022/04/09 06:46:12;;;;;;;;;7.75;7.00;;;;;22.17;41.08;100283.47;146599;630;46016;-76
2022/04/09 06:49:04;;;;;;;;;6.67;6.67;;;;;22.30;40.53;100279.91;146603;580;46021;-76
2022/04/09 06:51:56;;;;;;;;;7.50;7.00;;;;;22.44;40.76;100280.75;146596;574;47917;-75
2022/04/09 06:54:48;;;;;;;;;6.00;5.00;;;;;22.61;40.60;100291.22;146604;565;46021;-86
2022/04/09 06:57:42;;;;;;;;;5.00;5.00;;;;;22.80;39.79;100295.53;146600;581;47010;-81
2022/04/09 07:00:34;;;;;;;;;6.67;5.67;;;;;22.95;40.26;100291.06;146601;584;47008;-82
2022/04/09 07:03:26;;;;;;;;;5.00;4.25;;;;;23.12;40.15;100291.84;146598;749;46010;-80
2022/04/09 07:06:18;;;;;;;;;8.33;4.00;;;;;23.25;40.41;100282.06;146602;649;46008;-81
2022/04/09 07:09:10;;;;;;;;;4.00;4.00;;;;;23.39;40.20;100287.22;146598;606;47010;-81
2022/04/09 07:12:03;;;;;;;;;7.00;7.00;;;;;23.50;39.31;100283.59;146604;581;46021;-80
2022/04/09 07:14:55;;;;;;;;;5.75;5.50;;;;;23.57;38.37;100291.50;146601;667;46016;-78
2022/04/09 07:17:47;;;;;;;;;4.25;3.50;;;;;23.54;39.49;100289.75;146603;669;46008;-80
2022/04/09 07:20:40;;;;;;;;;5.00;5.00;;;;;23.62;39.83;100284.41;146598;598;47010;-76
2022/04/09 07:23:33;;;;;;;;;4.50;4.50;;;;;23.82;39.33;100274.50;146603;627;46008;-76
2022/04/09 07:26:26;;;;;;;;;6.75;5.00;;;;;23.98;39.38;100273.44;146598;576;46017;-70
2022/04/09 07:29:17;;;;;;;;;5.00;5.00;;;;;24.15;38.94;100267.09;146603;594;46020;-72
2022/04/09 07:32:10;;;;;;;;;4.25;4.00;;;;;24.33;38.55;100266.88;146600;612;46016;-71
2022/04/09 07:35:02;;;;;;;;;6.00;4.00;;;;;24.54;38.24;100256.91;146598;687;47008;-72
2022/04/09 07:37:58;;;;;;;;;4.67;4.00;;;;;24.76;38.53;100260.16;146599;614;46016;-75
2022/04/09 07:40:50;;;;;;;;;6.67;6.33;;;;;24.97;37.37;100253.66;146603;617;46020;-73
2022/04/09 07:43:43;;;;;;;;;5.00;4.33;;;;;24.31;37.38;100120.28;146598;616;47010;-76
2022/04/09 07:46:35;;;;;;;;;4.33;4.33;;;;;25.16;38.14;100259.59;146602;613;46020;-73
2022/04/09 07:49:27;;;;;;;;;3.67;3.00;;;;;25.14;36.04;100267.59;146600;639;46030;-79
2022/04/09 07:52:19;;;;;;;;;5.33;4.33;;;;;25.06;37.38;100261.47;146603;571;46020;-83
2022/04/09 07:55:14;;;;;;;;;6.33;6.00;;;;;24.96;36.71;100270.47;146601;587;46029;-83
2022/04/09 07:58:09;;;;;;;;;2.00;2.00;;;;;24.92;35.88;100268.75;146603;666;46020;-84
2022/04/09 08:01:01;;;;;;;;;1.67;0.00;;;;;24.88;34.26;100263.50;146600;579;46016;-83
2022/04/09 08:03:53;;;;;;;;;0.00;0.00;;;;;24.92;35.69;100263.44;146601;597;46020;-79
2022/04/09 08:06:45;;;;;;;;;0.00;0.00;;;;;25.03;35.67;100261.53;146602;703;46016;-83
2022/04/09 08:09:37;;;;;;;;;2.00;1.00;;;;;25.11;35.13;100257.84;146603;565;46021;-82
2022/04/09 08:12:30;;;;;;;;;0.00;0.00;;;;;25.21;33.25;100255.97;146601;586;46016;-83
2022/04/09 08:15:22;;;;;;;;;2.00;1.00;;;;;25.28;34.72;100262.91;146599;570;47008;-83
2022/04/09 08:18:14;;;;;;;;;1.00;1.00;;;;;25.35;34.47;100256.59;146598;654;47010;-85
2022/04/09 08:21:07;;;;;;;;;1.00;0.00;;;;;25.49;33.04;100255.50;146599;583;48917;-82
2022/04/09 08:23:59;;;;;;;;;1.33;0.00;;;;;25.49;33.05;100256.38;146599;595;46016;-85
2022/04/09 08:26:51;;;;;;;;;1.67;0.00;;;;;25.49;33.51;100252.84;146605;592;46008;-82
2022/04/09 08:29:43;;;;;;;;;0.33;0.00;;;;;25.48;32.58;100246.66;146599;569;47010;-82
2022/04/09 08:32:35;;;;;;;;;1.00;0.00;;;;;25.57;34.23;100254.44;146602;572;47008;-82
2022/04/09 08:35:28;;;;;;;;;0.67;0.67;;;;;25.72;32.63;100249.75;146600;673;47010;-83
2022/04/09 08:38:20;;;;;;;;;1.67;0.00;;;;;25.83;32.04;100239.00;146603;584;46020;-82
2022/04/09 08:41:12;;;;;;;;;2.33;0.00;;;;;25.83;32.25;100241.66;146600;630;46016;-83
2022/04/09 08:44:05;;;;;;;;;2.33;0.67;;;;;25.81;32.77;100239.00;146604;627;46020;-82
2022/04/09 08:46:58;;;;;;;;;0.00;0.00;;;;;25.76;32.38;100240.81;146602;693;46011;-82
2022/04/09 08:49:52;;;;;;;;;1.00;1.00;;;;;25.79;33.04;100238.13;146603;563;47008;-84
2022/04/09 08:52:47;;;;;;;;;0.67;0.00;;;;;25.92;33.50;100236.13;146600;647;46017;-82
2022/04/09 08:55:42;;;;;;;;;1.00;0.00;;;;;26.11;34.51;100234.00;146598;583;47008;-81
2022/04/09 08:58:34;;;;;;;;;0.00;0.00;;;;;26.30;32.06;100226.53;146600;585;46010;-75
2022/04/09 09:01:26;;;;;;;;;1.33;0.33;;;;;26.41;32.90;100224.50;146600;634;46008;-78
2022/04/09 09:04:21;;;;;;;;;0.00;0.00;;;;;26.48;31.71;100221.72;146600;590;47010;-78
2022/04/09 09:07:28;;;;;;;;;0.00;0.00;;;;;26.56;33.73;100218.88;146601;563;47008;-78
2022/04/09 09:10:21;;;;;;;;;2.00;1.33;;;;;26.69;32.76;100224.78;146602;610;46010;-76
2022/04/09 09:13:15;;;;;;;;;1.67;1.67;;;;;26.90;33.37;100210.13;146601;595;47008;-76
2022/04/09 09:16:08;;;;;;;;;0.00;0.00;;;;;27.16;31.06;100210.37;146595;572;47012;-76
2022/04/09 09:19:10;;;;;;;;;0.67;0.00;;;;;27.34;34.07;100206.37;146602;625;46008;-75
2022/04/09 09:22:05;;;;;;;;;0.67;0.00;;;;;27.54;31.89;100199.63;146599;682;47012;-76
2022/04/09 09:25:09;;;;;;;;;0.00;0.00;;;;;27.75;33.55;100191.06;146602;629;46021;-76
2022/04/09 09:28:01;;;;;;;;;2.00;1.00;;;;;27.85;31.32;100189.94;146599;563;47012;-76
2022/04/09 09:30:54;;;;;;;;;1.00;0.67;;;;;27.96;31.69;100188.75;146601;580;46021;-76
2022/04/09 09:33:51;;;;;;;;;1.00;0.00;;;;;28.14;33.15;100174.00;146600;632;46016;-76
2022/04/09 09:36:44;;;;;;;;;0.00;0.00;;;;;28.33;29.76;100180.53;146605;575;46020;-76
2022/04/09 09:39:36;;;;;;;;;0.00;0.00;;;;;28.33;27.96;100181.41;146600;594;46017;-76
2022/04/09 09:42:29;;;;;;;;;0.00;0.00;;;;;28.25;30.13;100171.88;146602;565;46020;-76
2022/04/09 09:45:44;;;;;;;;;0.00;0.00;;;;;27.49;31.83;100036.47;146598;696;46017;-77
2022/04/09 09:48:36;;;;;;;;;0.00;0.00;;;;;28.25;28.48;100174.53;146602;662;46012;-78
2022/04/09 09:51:29;;;;;;;;;1.00;0.00;;;;;28.21;29.92;100171.09;146598;589;46016;-77
2022/04/09 09:54:21;;;;;;;;;2.00;0.00;;;;;28.19;29.87;100175.59;146602;566;47008;-78
2022/04/09 09:57:33;;;;;;;;;1.00;0.00;;;;;28.19;31.94;100170.28;146599;565;46016;-78
2022/04/09 10:00:25;;;;;;;;;0.00;0.00;;;;;28.14;27.97;100166.88;146603;611;46021;-77
2022/04/09 10:03:18;;;;;;;;;0.00;0.00;;;;;28.12;28.55;100175.84;146600;565;47012;-77
2022/04/09 10:06:12;;;;;;;;;1.00;0.33;;;;;28.13;29.58;100174.91;146599;563;47008;-76
2022/04/09 10:09:06;;;;;;;;;0.33;0.00;;;;;28.20;29.22;100171.16;146599;574;46016;-77
2022/04/09 10:11:58;;;;;;;;;0.00;0.00;;;;;28.27;29.79;100164.72;146603;652;46020;-77
2022/04/09 10:15:01;;;;;;;;;1.00;0.00;;;;;28.42;30.94;100158.94;146596;593;47010;-76
2022/04/09 10:17:54;;;;;;;;;0.00;0.00;;;;;28.61;27.68;100166.37;146603;594;46020;-84
2022/04/09 10:20:48;;;;;;;;;1.00;1.00;;;;;28.64;28.04;100161.81;146599;586;46919;-71
2022/04/09 10:23:40;;;;;;;;;0.00;0.00;;;;;28.58;29.08;100151.34;146605;699;46008;-71
2022/04/09 10:26:33;;;;;;;;;0.00;0.00;;;;;28.62;29.62;100149.44;146598;602;47010;-78
2022/04/09 10:29:26;;;;;;;;;0.00;0.00;;;;;28.74;30.11;100151.72;146600;645;47008;-78
2022/04/09 10:33:03;;;;;;;;;0.00;0.00;;;;;28.07;32.22;100010.75;146598;697;47012;-78
2022/04/09 10:36:01;;;;;;;;;1.00;1.00;;;;;28.92;29.94;100136.88;146602;623;47012;-77
2022/04/09 10:39:46;;;;;;;;;1.00;0.00;;;;;28.03;30.98;99979.78;146603;674;46016;-80
2022/04/09 10:42:52;;;;;;;;;3.33;1.67;;;;;29.03;31.26;100136.53;146600;601;47008;-78
2022/04/09 10:46:19;;;;;;;;;1.00;1.00;;;;;28.21;31.00;99997.84;146596;656;47010;-76
2022/04/09 10:49:21;;;;;;;;;6.00;5.00;;;;;28.91;32.20;100135.13;146602;621;46020;-78
2022/04/09 10:52:19;;;;;;;;;1.33;1.33;;;;;28.79;30.26;100120.41;146601;578;46016;-77
2022/04/09 10:55:31;;;;;;;;;2.67;2.00;;;;;28.69;32.98;100111.84;146602;631;46027;-80
2022/04/09 10:58:23;;;;;;;;;3.67;3.67;;;;;28.70;30.89;100118.94;146601;590;46016;-77
2022/04/09 11:02:10;;;;;;;;;4.00;2.67;;;;;28.63;33.94;100109.38;146601;572;47008;-79
2022/04/09 11:05:22;;;;;;;;;3.67;3.67;;;;;26.93;33.11;99854.41;146597;565;47012;-81
2022/04/09 11:08:24;;;;;;;;;1.67;1.00;;;;;28.22;32.47;100100.00;146602;564;46021;-80
2022/04/09 11:11:29;;;;;;;;;3.33;3.00;;;;;28.19;33.26;100106.28;146599;597;46016;-80
2022/04/09 11:14:20;;;;;;;;;2.33;1.33;;;;;28.24;31.41;100103.50;146600;602;47008;-80
2022/04/09 11:17:48;;;;;;;;;3.67;2.33;;;;;26.73;33.01;99840.84;146598;586;46032;-81
2022/04/09 11:20:42;;;;;;;;;4.00;2.33;;;;;28.28;31.83;100087.34;146601;587;46008;-80
2022/04/09 11:23:34;;;;;;;;;2.67;0.33;;;;;28.40;30.68;100098.56;146601;576;46010;-81
2022/04/09 11:26:28;;;;;;;;;4.00;2.00;;;;;28.34;30.92;100086.28;146603;592;46020;-82
2022/04/09 11:29:20;;;;;;;;;3.67;3.00;;;;;28.25;31.74;100081.25;146602;570;46010;-80
2022/04/09 11:32:21;;;;;;;;;2.67;2.33;;;;;28.22;33.25;100073.34;146601;587;46008;-80
2022/04/09 11:35:16;;;;;;;;;3.33;3.00;;;;;28.34;31.23;100070.28;146598;574;46029;-81
2022/04/09 11:38:14;;;;;;;;;3.67;3.67;;;;;28.40;33.25;100075.44;146599;579;47008;-81
2022/04/09 11:41:23;;;;;;;;;3.00;3.00;;;;;28.44;32.84;100071.78;146598;579;46919;-80
2022/04/09 11:44:29;;;;;;;;;2.67;1.67;;;;;28.42;32.16;100065.62;146603;570;46008;-78
2022/04/09 11:47:26;;;;;;;;;2.00;1.00;;;;;28.30;31.32;100053.53;146598;668;47010;-81
2022/04/09 11:50:19;;;;;;;;;2.00;1.00;;;;;28.26;31.15;100051.00;146604;565;46020;-81
2022/04/09 11:53:20;;;;;;;;;4.00;3.00;;;;;28.18;32.21;100053.91;146600;618;46010;-80
2022/04/09 11:56:12;;;;;;;;;3.00;3.00;;;;;28.01;31.18;100057.13;146606;640;45020;-81
2022/04/09 11:59:05;;;;;;;;;5.33;4.00;;;;;27.94;31.28;100046.69;146601;606;46010;-80
2022/04/09 12:01:58;;;;;;;;;3.33;1.33;;;;;27.95;31.76;100038.66;146601;581;47008;-80
2022/04/09 12:04:51;;;;;;;;;3.00;2.00;;;;;28.01;31.27;100032.28;146600;575;46016;-81
2022/04/09 12:07:48;;;;;;;;;1.67;1.67;;;;;28.03;32.48;100027.75;146606;572;46021;-81
2022/04/09 12:10:55;;;;;;;;;2.67;2.00;;;;;28.10;32.49;100026.66;146598;569;47010;-82
2022/04/09 12:13:49;;;;;;;;;1.33;1.33;;;;;28.13;29.71;100020.31;146606;570;46020;-81
2022/04/09 12:16:42;;;;;;;;;3.67;1.67;;;;;28.23;30.57;100024.47;146599;608;46010;-81
2022/04/09 12:19:35;;;;;;;;;1.33;1.33;;;;;28.31;31.64;100015.25;146630;585;45008;-82
2022/04/09 12:22:28;;;;;;;;;3.33;2.00;;;;;28.38;29.71;100007.06;146629;569;46008;-82
2022/04/09 12:25:39;;;;;;;;;2.00;1.00;;;;;28.38;31.31;99997.28;146630;604;45008;-82
2022/04/09 12:28:36;;;;;;;;;1.00;1.00;;;;;28.28;30.97;99990.50;146625;592;45919;-84
2022/04/09 12:31:28;;;;;;;;;2.33;2.00;;;;;28.29;31.12;99997.59;146629;578;45028;-80
2022/04/09 12:34:21;;;;;;;;;2.67;2.00;;;;;28.29;30.75;99989.59;146626;563;45919;-85
2022/04/09 12:37:13;;;;;;;;;3.33;3.00;;;;;28.21;30.66;99988.97;146628;618;46008;-87
2022/04/09 12:40:16;;;;;;;;;2.67;1.67;;;;;27.61;32.21;99909.16;146628;577;45016;-82
2022/04/09 12:43:41;;;;;;;;;3.00;2.00;;;;;27.29;30.98;99838.28;146626;620;46008;-81
2022/04/09 12:46:33;;;;;;;;;4.00;2.00;;;;;27.97;29.62;99980.84;146626;601;45016;-80
2022/04/09 12:49:33;;;;;;;;;2.33;2.00;;;;;27.81;30.68;99974.25;146626;615;46008;-80
2022/04/09 12:52:25;;;;;;;;;2.00;1.00;;;;;27.60;30.37;99975.75;146622;630;45919;-80
2022/04/09 12:55:22;;;;;;;;;3.00;2.00;;;;;27.56;31.20;99971.47;146630;573;45025;-81
2022/04/09 12:58:14;;;;;;;;;2.00;1.67;;;;;27.52;29.80;99968.03;146627;634;45919;-80
2022/04/09 13:01:06;;;;;;;;;2.00;2.00;;;;;27.49;30.05;99968.13;146629;585;46008;-79
2022/04/09 13:03:58;;;;;;;;;2.00;1.67;;;;;27.42;30.92;99960.38;146626;600;45919;-80
2022/04/09 13:06:50;;;;;;;;;2.00;1.67;;;;;27.38;29.76;99955.13;146628;569;45021;-80
2022/04/09 13:09:42;;;;;;;;;2.00;2.00;;;;;27.46;31.44;99954.03;146629;672;45008;-80
2022/04/09 13:12:35;;;;;;;;;3.67;3.00;;;;;27.49;30.63;99944.16;146627;565;45009;-79
2022/04/09 13:15:28;;;;;;;;;2.00;2.00;;;;;27.55;30.85;99943.97;146622;581;46008;-79
2022/04/09 13:18:20;;;;;;;;;3.67;1.00;;;;;27.60;30.77;99933.16;146618;622;45917;-79
2022/04/09 13:21:12;;;;;;;;;1.00;1.00;;;;;27.66;30.29;99935.62;146599;564;46011;-80
2022/04/09 13:24:06;;;;;;;;;2.00;1.00;;;;;27.71;30.45;99927.50;146602;651;46008;-79
2022/04/09 13:26:58;;;;;;;;;2.00;1.00;;;;;27.78;31.16;99929.06;146602;641;46016;-80
2022/04/09 13:29:50;;;;;;;;;3.00;2.00;;;;;27.91;31.23;99933.06;146602;570;46008;-84
2022/04/09 13:32:43;;;;;;;;;2.33;1.00;;;;;27.95;30.43;99929.41;146598;609;46016;-80
2022/04/09 13:35:34;;;;;;;;;1.33;1.33;;;;;27.94;30.28;99924.13;146605;585;46008;-81